createdAt,value
2018-08-28T00:02:20.066Z,100898.58
2018-08-28T00:04:55.669Z,100891.67
2018-08-28T00:07:31.353Z,100892.18
2018-08-28T00:10:07.253Z,100884.13
2018-08-28T00:12:43.022Z,100881.79
2018-08-28T00:15:19.577Z,100888.30
2018-08-28T00:17:55.648Z,100887.99
2018-08-28T00:20:31.305Z,100891.17
2018-08-28T00:23:07.069Z,100896.53
2018-08-28T00:25:42.706Z,100891.82
2018-08-28T00:28:21.317Z,100888.14
2018-08-28T00:30:56.895Z,100890.42
2018-08-28T00:33:34.421Z,100888.78
2018-08-28T00:36:10.382Z,100895.09
2018-08-28T00:38:46.721Z,100890.56
2018-08-28T00:41:22.337Z,100892.94
2018-08-28T00:43:58.054Z,100899.95
2018-08-28T00:46:34.557Z,100894.28
2018-08-28T00:49:10.419Z,100891.27
2018-08-28T00:51:46.972Z,100896.97
2018-08-28T00:54:22.424Z,100888.58
2018-08-28T00:56:58.031Z,100900.98
2018-08-28T00:59:34.971Z,100903.83
2018-08-28T01:02:10.970Z,100898.47
2018-08-28T01:04:46.719Z,100898.66
2018-08-28T01:07:22.196Z,100901.69
2018-08-28T01:09:57.947Z,100898.16
2018-08-28T01:12:34.709Z,100900.00
2018-08-28T01:15:10.878Z,100891.96
2018-08-28T01:17:46.439Z,100897.97
2018-08-28T01:20:22.078Z,100891.63
2018-08-28T01:22:57.879Z,100900.20
2018-08-28T01:25:33.457Z,100892.97
2018-08-28T01:28:09.009Z,100889.98
2018-08-28T01:30:44.900Z,100895.20
2018-08-28T01:33:20.510Z,100895.89
2018-08-28T01:35:56.403Z,100897.23
2018-08-28T01:38:33.320Z,100893.72
2018-08-28T01:41:09.146Z,100892.06
2018-08-28T01:43:45.164Z,100891.73
2018-08-28T01:46:20.917Z,100892.06
2018-08-28T01:48:54.638Z,100888.85
2018-08-28T01:51:30.610Z,100898.37
2018-08-28T01:54:06.719Z,100898.37
2018-08-28T01:56:42.740Z,100906.92
2018-08-28T01:59:18.341Z,100903.44
2018-08-28T02:01:54.709Z,100913.62
2018-08-28T02:04:30.714Z,100904.63
2018-08-28T02:07:11.882Z,100907.17
2018-08-28T02:09:47.533Z,100918.23
2018-08-28T02:12:23.349Z,100921.72
2018-08-28T02:14:59.001Z,100927.63
2018-08-28T02:17:34.785Z,100929.46
2018-08-28T02:20:10.756Z,100929.13
2018-08-28T02:22:46.384Z,100933.48
2018-08-28T02:25:22.155Z,100929.13
2018-08-28T02:27:57.840Z,100936.52
2018-08-28T02:30:33.550Z,100935.37
2018-08-28T02:33:09.350Z,100934.73
2018-08-28T02:35:44.936Z,100940.73
2018-08-28T02:38:20.528Z,100950.62
2018-08-28T02:40:56.467Z,100947.69
2018-08-28T02:43:32.738Z,100949.17
2018-08-28T02:46:08.513Z,100946.35
2018-08-28T02:48:44.953Z,100946.02
2018-08-28T02:51:20.904Z,100946.51
2018-08-28T02:53:56.586Z,100953.55
2018-08-28T02:56:32.182Z,100955.54
2018-08-28T02:59:07.623Z,100955.22
2018-08-28T03:01:43.577Z,100954.84
2018-08-28T03:04:19.733Z,100962.19
2018-08-28T03:06:55.372Z,100967.50
2018-08-28T03:09:31.061Z,100963.63
2018-08-28T03:12:06.734Z,100966.84
2018-08-28T03:14:42.702Z,100966.31
2018-08-28T03:17:19.620Z,100973.55
2018-08-28T03:19:55.501Z,100972.70
2018-08-28T03:22:31.183Z,100971.02
2018-08-28T03:25:06.949Z,100977.91
2018-08-28T03:27:42.650Z,100969.91
2018-08-28T03:30:18.205Z,100983.27
2018-08-28T03:32:53.952Z,100983.63
2018-08-28T03:35:29.590Z,100983.17
2018-08-28T03:38:05.432Z,100995.38
2018-08-28T03:40:41.627Z,100998.06
2018-08-28T03:43:17.706Z,101002.08
2018-08-28T03:45:53.491Z,101012.15
2018-08-28T03:48:29.123Z,101019.66
2018-08-28T03:51:04.656Z,101021.69
2018-08-28T03:53:40.514Z,101021.53
2018-08-28T03:56:15.962Z,101032.17
2018-08-28T03:58:51.604Z,101024.16
2018-08-28T04:01:27.417Z,101027.14
2018-08-28T04:04:03.649Z,101030.26
2018-08-28T04:06:39.748Z,101039.50
2018-08-28T04:09:15.516Z,101043.14
2018-08-28T04:11:51.186Z,101044.67
2018-08-28T04:14:26.946Z,101045.95
2018-08-28T04:17:02.590Z,101053.80
2018-08-28T04:19:38.203Z,101057.45
2018-08-28T04:22:13.951Z,101059.60
2018-08-28T04:24:49.435Z,101056.55
2018-08-28T04:27:25.130Z,101059.73
2018-08-28T04:30:00.735Z,101060.37
2018-08-28T04:32:36.098Z,101068.38
2018-08-28T04:35:12.270Z,101065.86
2018-08-28T04:37:48.004Z,101067.85
2018-08-28T04:40:23.700Z,101076.73
2018-08-28T04:42:59.521Z,101077.88
2018-08-28T04:45:35.258Z,101074.20
2018-08-28T04:48:11.299Z,101074.20
2018-08-28T04:50:47.954Z,101077.01
2018-08-28T04:53:23.680Z,101075.52
2018-08-28T04:55:59.489Z,101078.19
2018-08-28T04:58:35.044Z,101082.02
2018-08-28T05:01:10.449Z,101077.66
2018-08-28T05:03:45.947Z,101085.70
2018-08-28T05:06:22.104Z,101093.93
2018-08-28T05:08:57.792Z,101092.59
2018-08-28T05:11:33.565Z,101091.25
2018-08-28T05:14:07.334Z,101097.64
2018-08-28T05:16:43.123Z,101096.11
2018-08-28T05:19:18.813Z,101101.13
2018-08-28T05:21:54.799Z,101100.63
2018-08-28T05:24:30.127Z,101106.83
2018-08-28T05:27:05.714Z,101107.83
2018-08-28T05:29:41.503Z,101101.13
2018-08-28T05:32:17.175Z,101104.34
2018-08-28T05:34:53.934Z,101105.33
2018-08-28T05:37:29.565Z,101101.13
2018-08-28T05:40:05.505Z,101101.47
2018-08-28T05:42:41.257Z,101103.66
2018-08-28T05:45:17.060Z,101105.30
2018-08-28T05:47:52.783Z,101107.14
2018-08-28T05:50:28.200Z,101107.67
2018-08-28T05:53:04.018Z,101113.34
2018-08-28T05:56:25.808Z,101115.71
2018-08-28T05:59:01.551Z,101116.02
2018-08-28T06:01:38.453Z,101117.86
2018-08-28T06:04:14.247Z,101112.34
2018-08-28T06:06:49.799Z,101111.84
2018-08-28T06:09:25.815Z,101105.80
2018-08-28T06:12:01.810Z,101109.32
2018-08-28T06:14:37.835Z,101112.00
2018-08-28T06:17:13.492Z,101110.84
2018-08-28T06:19:49.389Z,101108.17
2018-08-28T06:22:24.918Z,101109.51
2018-08-28T06:25:00.765Z,101114.02
2018-08-28T06:27:36.541Z,101111.03
2018-08-28T06:30:12.406Z,101110.69
2018-08-28T06:32:48.153Z,101112.53
2018-08-28T06:35:23.597Z,101115.73
2018-08-28T06:37:59.708Z,101120.75
2018-08-28T06:40:35.701Z,101126.11
2018-08-28T06:43:11.485Z,101131.97
2018-08-28T06:45:46.993Z,101127.45
2018-08-28T06:48:22.855Z,101125.12
2018-08-28T06:50:58.475Z,101130.79
2018-08-28T06:53:33.995Z,101128.61
2018-08-28T06:56:09.688Z,101129.80
2018-08-28T06:58:45.042Z,101128.27
2018-08-28T07:01:20.605Z,101130.08
2018-08-28T07:03:56.088Z,101129.08
2018-08-28T07:06:31.829Z,101128.39
2018-08-28T07:09:07.722Z,101124.22
2018-08-28T07:11:43.427Z,101122.88
2018-08-28T07:14:19.242Z,101123.03
2018-08-28T07:16:55.584Z,101121.69
2018-08-28T07:19:31.544Z,101124.72
2018-08-28T07:22:07.188Z,101125.21
2018-08-28T07:24:43.210Z,101123.88
2018-08-28T07:27:19.008Z,101128.20
2018-08-28T07:29:54.432Z,101127.39
2018-08-28T07:32:30.161Z,101124.19
2018-08-28T07:35:05.976Z,101123.38
2018-08-28T07:37:41.525Z,101126.05
2018-08-28T07:40:17.805Z,101129.23
2018-08-28T07:42:53.641Z,101126.55
2018-08-28T07:45:29.508Z,101129.23
2018-08-28T07:48:05.437Z,101120.85
2018-08-28T07:50:41.008Z,101124.38
2018-08-28T07:53:16.502Z,101121.37
2018-08-28T07:55:52.051Z,101124.87
2018-08-28T07:58:27.632Z,101124.06
2018-08-28T08:01:03.025Z,101125.71
2018-08-28T08:03:38.661Z,101124.87
2018-08-28T08:06:14.688Z,101129.55
2018-08-28T08:08:50.493Z,101122.03
2018-08-28T08:11:25.848Z,101124.72
2018-08-28T08:14:02.015Z,101118.83
2018-08-28T08:16:37.467Z,101120.01
2018-08-28T08:19:13.268Z,101120.51
2018-08-28T08:21:49.087Z,101124.34
2018-08-28T08:24:24.613Z,101118.67
2018-08-28T08:27:00.293Z,101123.00
2018-08-28T08:29:36.016Z,101119.66
2018-08-28T08:32:11.579Z,101111.47
2018-08-28T08:34:47.506Z,101109.32
2018-08-28T08:37:23.121Z,101105.42
2018-08-28T08:40:00.310Z,101104.27
2018-08-28T08:42:36.863Z,101105.42
2018-08-28T08:45:12.640Z,101110.28
2018-08-28T08:47:48.166Z,101110.47
2018-08-28T08:51:52.857Z,101105.95
2018-08-28T08:54:28.562Z,101109.82
2018-08-28T08:57:04.876Z,101106.30
2018-08-28T08:59:40.568Z,101104.62
2018-08-28T09:02:16.099Z,101104.62
2018-08-28T09:04:51.767Z,101100.59
2018-08-28T09:07:27.298Z,101103.12
2018-08-28T09:10:03.057Z,101108.14
2018-08-28T09:12:38.665Z,101103.80
2018-08-28T09:15:14.276Z,101106.95
2018-08-28T09:17:49.857Z,101105.61
2018-08-28T09:20:25.095Z,101104.62
2018-08-28T09:23:00.944Z,101100.25
2018-08-28T09:25:36.631Z,101106.48
2018-08-28T09:28:12.354Z,101107.83
2018-08-28T09:30:47.778Z,101101.13
2018-08-28T09:33:23.610Z,101104.62
2018-08-28T09:35:59.308Z,101101.94
2018-08-28T09:38:34.901Z,101097.41
2018-08-28T09:41:10.600Z,101102.09
2018-08-28T09:43:45.884Z,101110.12
2018-08-28T09:46:21.600Z,101103.62
2018-08-28T09:48:57.185Z,101100.94
2018-08-28T09:51:32.840Z,101096.92
2018-08-28T09:54:08.609Z,101107.64
2018-08-28T09:56:44.402Z,101110.31
2018-08-28T09:59:20.045Z,101105.95
2018-08-28T10:01:55.716Z,101103.80
2018-08-28T10:04:31.634Z,101107.98
2018-08-28T10:07:07.312Z,101107.67
2018-08-28T10:09:42.910Z,101106.14
2018-08-28T10:16:06.219Z,101110.12
2018-08-28T10:18:42.070Z,101104.80
2018-08-28T10:21:18.105Z,101107.14
2018-08-28T10:23:53.854Z,101110.84
2018-08-28T10:26:30.359Z,101105.14
2018-08-28T10:29:06.399Z,101105.67
2018-08-28T10:31:42.604Z,101102.47
2018-08-28T10:34:18.996Z,101109.70
2018-08-28T10:36:55.217Z,101105.48
2018-08-28T10:39:31.790Z,101109.51
2018-08-28T10:42:07.886Z,101113.19
2018-08-28T10:44:43.867Z,101106.67
2018-08-28T10:47:19.889Z,101112.53
2018-08-28T10:49:55.891Z,101108.89
2018-08-28T10:52:32.086Z,101119.41
2018-08-28T10:55:08.271Z,101121.09
2018-08-28T10:57:44.700Z,101118.08
2018-08-28T11:00:20.674Z,101111.72
2018-08-28T11:02:57.083Z,101108.52
2018-08-28T11:05:33.084Z,101112.53
2018-08-28T11:08:09.263Z,101112.72
2018-08-28T11:10:45.143Z,101114.55
2018-08-28T11:13:21.751Z,101112.72
2018-08-28T11:15:57.910Z,101113.22
2018-08-28T11:18:33.889Z,101107.02
2018-08-28T11:21:09.926Z,101108.89
2018-08-28T11:23:45.900Z,101108.70
2018-08-28T11:26:22.632Z,101108.35
2018-08-28T11:28:59.173Z,101109.38
2018-08-28T11:31:35.175Z,101116.42
2018-08-28T11:34:11.714Z,101108.88
2018-08-28T11:36:47.863Z,101113.24
2018-08-28T11:39:23.881Z,101119.45
2018-08-28T11:41:59.804Z,101112.75
2018-08-28T11:44:35.913Z,101110.56
2018-08-28T11:47:11.728Z,101117.27
2018-08-28T11:50:52.626Z,101119.95
2018-08-28T11:53:28.670Z,101122.81
2018-08-28T11:56:04.658Z,101113.93
2018-08-28T11:58:40.917Z,101113.09
2018-08-28T12:01:16.909Z,101119.10
2018-08-28T12:03:53.102Z,101120.12
2018-08-28T12:06:29.192Z,101124.45
2018-08-28T12:09:05.652Z,101116.92
2018-08-28T12:11:41.886Z,101128.17
2018-08-28T12:14:17.929Z,101130.84
2018-08-28T12:16:54.082Z,101123.80
2018-08-28T12:19:29.887Z,101125.14
2018-08-28T12:22:06.110Z,101122.16
2018-08-28T12:24:42.323Z,101125.83
2018-08-28T12:27:18.497Z,101123.49
2018-08-28T12:29:54.938Z,101130.69
2018-08-28T12:32:31.160Z,101133.19
2018-08-28T12:35:07.272Z,101129.84
2018-08-28T12:37:43.926Z,101123.64
2018-08-28T12:40:19.812Z,101125.86
2018-08-28T12:42:56.380Z,101132.05
2018-08-28T12:45:32.683Z,101134.20
2018-08-28T12:48:09.048Z,101134.55
2018-08-28T12:50:45.348Z,101139.06
2018-08-28T12:53:21.952Z,101132.86
2018-08-28T12:55:58.108Z,101138.22
2018-08-28T12:58:34.344Z,101139.06
2018-08-28T13:01:10.986Z,101127.22
2018-08-28T13:03:47.018Z,101129.72
2018-08-28T13:06:22.909Z,101137.75
2018-08-28T13:08:59.568Z,101147.28
2018-08-28T13:11:35.869Z,101136.75
2018-08-28T13:14:11.769Z,101136.23
2018-08-28T13:16:47.915Z,101142.92
2018-08-28T13:19:23.897Z,101138.09
2018-08-28T13:21:59.933Z,101145.29
2018-08-28T13:24:35.888Z,101145.29
2018-08-28T13:27:12.105Z,101148.66
2018-08-28T13:29:48.289Z,101146.97
2018-08-28T13:32:24.848Z,101146.66
2018-08-28T13:35:01.376Z,101156.03
2018-08-28T13:37:38.400Z,101159.02
2018-08-28T13:40:15.825Z,101160.05
2018-08-28T13:42:52.065Z,101165.72
2018-08-28T13:45:28.348Z,101171.58
2018-08-28T13:48:04.636Z,101172.41
2018-08-28T13:50:41.018Z,101176.13
2018-08-28T13:53:17.019Z,101176.13
2018-08-28T13:55:52.954Z,101180.14
2018-08-28T13:58:29.182Z,101175.30
2018-08-28T14:01:05.381Z,101185.15
2018-08-28T14:03:41.708Z,101193.53
2018-08-28T14:06:18.316Z,101194.53
2018-08-28T14:08:55.358Z,101197.70
2018-08-28T14:11:31.893Z,101204.40
2018-08-28T14:14:08.965Z,101203.24
2018-08-28T14:16:45.414Z,101211.28
2018-08-28T14:19:21.984Z,101204.77
2018-08-28T14:21:58.364Z,101213.95
2018-08-28T14:24:34.759Z,101215.48
2018-08-28T14:27:11.508Z,101210.93
2018-08-28T14:29:48.093Z,101218.47
2018-08-28T14:32:24.086Z,101211.12
2018-08-28T14:35:00.450Z,101220.98
2018-08-28T14:37:37.270Z,101227.69
2018-08-28T14:40:14.161Z,101228.52
2018-08-28T14:42:50.141Z,101233.04
2018-08-28T14:45:26.733Z,101236.06
2018-08-28T14:48:03.204Z,101236.91
2018-08-28T14:50:39.369Z,101234.73
2018-08-28T14:53:15.969Z,101237.41
2018-08-28T14:55:52.517Z,101242.41
2018-08-28T14:58:28.940Z,101245.77
2018-08-28T15:01:05.465Z,101247.11
2018-08-28T15:03:41.490Z,101248.30
2018-08-28T15:06:17.916Z,101250.31
2018-08-28T15:08:53.959Z,101260.01
2018-08-28T15:11:30.177Z,101263.18
2018-08-28T15:14:06.324Z,101267.73
2018-08-28T15:16:43.017Z,101273.89
2018-08-28T15:19:19.331Z,101268.90
2018-08-28T15:21:55.640Z,101273.73
2018-08-28T15:24:31.983Z,101274.25
2018-08-28T15:27:08.462Z,101276.41
2018-08-28T15:29:44.807Z,101273.23
2018-08-28T15:32:21.168Z,101278.27
2018-08-28T15:34:58.102Z,101273.23
2018-08-28T15:37:34.437Z,101280.95
2018-08-28T15:40:10.759Z,101283.28
2018-08-28T15:42:46.756Z,101280.95
2018-08-28T15:45:23.047Z,101284.13
2018-08-28T15:47:59.171Z,101287.64
2018-08-28T15:50:35.278Z,101291.13
2018-08-28T15:53:12.015Z,101290.82
2018-08-28T15:55:48.384Z,101295.16
2018-08-28T15:58:24.996Z,101295.16
2018-08-28T16:01:01.201Z,101295.02
2018-08-28T16:03:37.749Z,101293.83
2018-08-28T16:06:14.017Z,101305.73
2018-08-28T16:08:50.009Z,101298.69
2018-08-28T16:11:26.127Z,101299.71
2018-08-28T16:14:02.371Z,101304.37
2018-08-28T16:16:38.434Z,101305.05
2018-08-28T16:19:14.968Z,101301.20
2018-08-28T16:21:59.018Z,101303.90
2018-08-28T16:24:35.601Z,101306.55
2018-08-28T16:27:11.993Z,101310.73
2018-08-28T16:29:48.211Z,101311.08
2018-08-28T16:32:23.952Z,101303.88
2018-08-28T16:34:59.988Z,101311.06
2018-08-28T16:37:36.445Z,101310.39
2018-08-28T16:40:12.406Z,101301.20
2018-08-28T16:42:48.807Z,101304.55
2018-08-28T16:45:24.924Z,101313.42
2018-08-28T16:48:00.466Z,101320.44
2018-08-28T16:50:36.250Z,101310.40
2018-08-28T16:53:11.967Z,101311.42
2018-08-28T16:55:48.560Z,101314.41
2018-08-28T16:58:25.012Z,101312.89
2018-08-28T17:01:01.017Z,101313.57
2018-08-28T17:06:34.425Z,101313.41
2018-08-28T17:09:11.078Z,101313.75
2018-08-28T17:11:47.792Z,101308.89
2018-08-28T17:14:23.831Z,101321.77
2018-08-28T17:16:59.517Z,101319.44
2018-08-28T17:19:35.024Z,101315.08
2018-08-28T17:22:10.788Z,101307.21
2018-08-28T17:24:46.567Z,101297.34
2018-08-28T17:27:22.811Z,101300.69
2018-08-28T17:29:59.204Z,101309.07
2018-08-28T17:32:34.887Z,101318.27
2018-08-28T17:35:11.028Z,101319.42
2018-08-28T17:37:47.311Z,101317.27
2018-08-28T17:40:23.525Z,101313.08
2018-08-28T17:42:59.408Z,101318.75
2018-08-28T17:45:35.061Z,101320.78
2018-08-28T17:48:11.039Z,101326.48
2018-08-28T17:50:46.794Z,101324.80
2018-08-28T17:53:22.733Z,101336.70
2018-08-28T17:55:58.834Z,101325.50
2018-08-28T17:58:34.856Z,101330.18
2018-08-28T18:01:10.797Z,101332.86
2018-08-28T18:03:47.327Z,101337.69
2018-08-28T18:06:23.317Z,101330.50
2018-08-28T18:08:59.313Z,101326.83
2018-08-28T18:11:35.888Z,101326.30
2018-08-28T18:14:12.379Z,101324.16
2018-08-28T18:16:48.559Z,101326.16
2018-08-28T18:19:25.060Z,101322.14
2018-08-28T18:22:01.044Z,101330.17
2018-08-28T18:24:37.038Z,101326.16
2018-08-28T18:27:13.055Z,101321.30
2018-08-28T18:29:49.207Z,101323.48
2018-08-28T18:32:25.043Z,101324.81
2018-08-28T18:35:01.057Z,101322.98
2018-08-28T18:37:37.048Z,101319.77
2018-08-28T18:40:13.167Z,101323.96
2018-08-28T18:42:49.073Z,101322.97
2018-08-28T18:45:25.392Z,101318.46
2018-08-28T18:48:03.244Z,101325.97
2018-08-28T18:50:41.089Z,101331.32
2018-08-28T18:53:17.443Z,101323.14
2018-08-28T18:55:54.527Z,101318.59
2018-08-28T18:58:31.245Z,101319.13
2018-08-28T19:01:07.224Z,101319.13
2018-08-28T19:03:43.226Z,101315.91
2018-08-28T19:06:19.233Z,101318.77
2018-08-28T19:08:55.442Z,101315.77
2018-08-28T19:11:32.180Z,101315.59
2018-08-28T19:14:08.303Z,101313.26
2018-08-28T19:16:44.711Z,101310.73
2018-08-28T19:19:21.043Z,101300.52
2018-08-28T19:21:57.385Z,101312.42
2018-08-28T19:24:34.070Z,101310.56
2018-08-28T19:27:10.497Z,101305.05
2018-08-28T19:29:47.245Z,101298.67
2018-08-28T19:32:23.332Z,101306.38
2018-08-28T19:34:59.899Z,101301.87
2018-08-28T19:37:36.689Z,101299.85
2018-08-28T19:40:13.393Z,101302.00
2018-08-28T19:42:50.054Z,101299.01
2018-08-28T19:45:26.473Z,101292.98
2018-08-28T19:48:02.964Z,101287.62
2018-08-28T19:50:40.219Z,101281.25
2018-08-28T19:53:16.729Z,101278.92
2018-08-28T19:55:54.068Z,101277.58
2018-08-28T19:58:30.561Z,101270.53
2018-08-28T20:01:07.271Z,101272.72
2018-08-28T20:03:43.829Z,101274.72
2018-08-28T20:06:20.283Z,101276.55
2018-08-28T20:08:56.582Z,101278.73
2018-08-28T20:11:32.841Z,101270.87
2018-08-28T20:14:09.865Z,101268.17
2018-08-28T20:16:46.422Z,101263.16
2018-08-28T20:19:22.808Z,101269.67
2018-08-28T20:21:59.255Z,101260.12
2018-08-28T20:24:35.662Z,101251.09
2018-08-28T20:27:12.571Z,101255.45
2018-08-28T20:29:49.143Z,101268.84
2018-08-28T20:32:25.299Z,101260.13
2018-08-28T20:35:01.826Z,101263.97
2018-08-28T20:37:38.090Z,101262.62
2018-08-28T20:40:14.206Z,101269.14
2018-08-28T20:42:50.413Z,101262.94
2018-08-28T20:45:26.751Z,101261.95
2018-08-28T20:48:03.092Z,101258.27
2018-08-28T20:50:39.501Z,101257.25
2018-08-28T20:53:16.106Z,101250.55
2018-08-28T20:55:52.192Z,101251.39
2018-08-28T20:58:28.549Z,101250.89
2018-08-28T21:01:04.872Z,101256.56
2018-08-28T21:03:41.108Z,101256.56
2018-08-28T21:06:17.433Z,101256.91
2018-08-28T21:08:53.367Z,101254.55
2018-08-28T21:11:29.492Z,101249.84
2018-08-28T21:14:06.021Z,101262.25
2018-08-28T21:16:42.285Z,101240.66
2018-08-28T21:19:18.494Z,101251.19
2018-08-28T21:21:54.940Z,101247.83
2018-08-28T21:24:31.086Z,101243.66
2018-08-28T21:27:07.132Z,101247.67
2018-08-28T21:29:43.304Z,101242.63
2018-08-28T21:32:19.352Z,101240.30
2018-08-28T21:34:55.435Z,101235.25
2018-08-28T21:37:31.676Z,101230.23
2018-08-28T21:40:08.107Z,101229.77
2018-08-28T21:42:44.224Z,101228.73
2018-08-28T21:45:20.340Z,101226.72
2018-08-28T21:47:56.992Z,101224.88
2018-08-28T21:50:33.073Z,101219.20
2018-08-28T21:53:09.291Z,101221.70
2018-08-28T21:55:45.550Z,101208.30
2018-08-28T21:58:21.753Z,101209.95
2018-08-28T22:01:02.108Z,101209.45
2018-08-28T22:03:38.233Z,101209.80
2018-08-28T22:06:19.004Z,101203.09
2018-08-28T22:08:55.458Z,101204.75
2018-08-28T22:11:32.004Z,101205.09
2018-08-28T22:14:08.108Z,101195.21
2018-08-28T22:16:44.449Z,101192.34
2018-08-28T22:19:20.900Z,101186.98
2018-08-28T22:21:56.921Z,101191.01
2018-08-28T22:24:33.339Z,101195.03
2018-08-28T22:27:09.324Z,101188.64
2018-08-28T22:29:46.133Z,101193.84
2018-08-28T22:32:22.479Z,101185.46
2018-08-28T22:34:58.551Z,101187.64
2018-08-28T22:37:34.833Z,101182.94
2018-08-28T22:40:12.582Z,101185.96
2018-08-28T22:42:49.128Z,101180.25
2018-08-28T22:45:25.113Z,101185.96
2018-08-28T22:48:01.462Z,101176.89
2018-08-28T22:50:37.522Z,101183.44
2018-08-28T22:53:13.889Z,101181.59
2018-08-28T22:55:50.146Z,101181.09
2018-08-28T22:58:26.157Z,101175.05
2018-08-28T23:01:01.761Z,101163.30
2018-08-28T23:03:37.335Z,101169.84
2018-08-28T23:06:13.133Z,101167.81
2018-08-28T23:08:48.507Z,101168.97
2018-08-28T23:11:24.469Z,101175.83
2018-08-28T23:14:00.575Z,101168.44
2018-08-28T23:16:36.292Z,101166.10
2018-08-28T23:19:13.100Z,101161.55
2018-08-28T23:21:50.031Z,101165.56
2018-08-28T23:24:25.844Z,101162.35
2018-08-28T23:27:02.269Z,101160.70
2018-08-28T23:29:37.953Z,101159.17
2018-08-28T23:32:13.790Z,101161.66
2018-08-28T23:34:49.788Z,101157.33
2018-08-28T23:37:28.819Z,101163.84
2018-08-28T23:40:04.889Z,101161.16
2018-08-28T23:42:40.399Z,101159.33
2018-08-28T23:45:18.915Z,101149.44
2018-08-28T23:47:56.983Z,101147.95
2018-08-28T23:50:32.585Z,101144.73
2018-08-28T23:53:10.140Z,101152.28
2018-08-28T23:55:46.603Z,101153.61
2018-08-28T23:58:22.347Z,101157.11
